Time;durP1;ratioP1;P1;durP2;ratioP2;P2;SDS_P1;SDS_P2;PMS_P1;PMS_P2;Temp;Humidity;BMP_temperature;BMP_pressure;BME280_temperature;BME280_humidity;BME280_pressure;Samples;Min_cycle;Max_cycle;Signal;HPM_P1;HPM_P2
2022/06/22 00:00:30;;;;;;;;;;;;;;;;;;5035014;28;19913;-76
2022/06/22 00:02:56;;;;;;;;;;;;;;;;;;5034969;28;20281;-76
2022/06/22 00:05:22;;;;;;;;;;;;;;;;;;5034663;28;19920;-77
2022/06/22 00:07:48;;;;;;;;;;;;;;;;;;5035145;28;20380;-78
2022/06/22 00:10:14;;;;;;;;;;;;;;;;;;5034773;28;19913;-76
2022/06/22 00:12:40;;;;;;;;;;;;;;;;;;5034519;28;19932;-76
2022/06/22 00:15:06;;;;;;;;;;;;;;;;;;5034475;28;20002;-76
2022/06/22 00:17:32;;;;;;;;;;;;;;;;;;5034396;28;19913;-77
2022/06/22 00:19:58;;;;;;;;;;;;;;;;;;5033090;28;19909;-76
2022/06/22 00:22:26;;;;;;;;;;;;;;;;;;5034608;28;19909;-76
2022/06/22 00:24:52;;;;;;;;;;;;;;;;;;5034548;28;19917;-76
2022/06/22 00:27:18;;;;;;;;;;;;;;;;;;5034806;28;19909;-77
2022/06/22 00:29:44;;;;;;;;;;;;;;;;;;5034431;28;20277;-76
2022/06/22 00:32:10;;;;;;;;;;;;;;;;;;5034713;28;20000;-77
2022/06/22 00:34:36;;;;;;;;;;;;;;;;;;5032844;28;19909;-78
2022/06/22 00:37:02;;;;;;;;;;;;;;;;;;5034151;28;19909;-77
2022/06/22 00:39:28;;;;;;;;;;;;;;;;;;5034064;28;19909;-78
2022/06/22 00:41:54;;;;;;;;;;;;;;;;;;5032586;28;20003;-77
2022/06/22 00:44:19;;;;;;;;;;;;;;;;;;5033894;28;20266;-78
2022/06/22 00:46:45;;;;;;;;;;;;;;;;;;5032688;28;20333;-76
2022/06/22 00:49:11;;;;;;;;;;;;;;;;;;5032670;28;19920;-77
2022/06/22 00:51:37;;;;;;;;;;;;;;;;;;5033792;28;20293;-77
2022/06/22 00:54:03;;;;;;;;;;;;;;;;;;5033861;28;19913;-75
2022/06/22 00:56:29;;;;;;;;;;;;;;;;;;5033780;28;19960;-76
2022/06/22 00:58:55;;;;;;;;;;;;;;;;;;5033781;28;19991;-76
2022/06/22 01:01:21;;;;;;;;;;;;;;;;;;5034013;28;19909;-76
2022/06/22 01:03:47;;;;;;;;;;;;;;;;;;5033707;28;20285;-76
2022/06/22 01:06:13;;;;;;;;;;;;;;;;;;5033718;28;19963;-76
2022/06/22 01:08:39;;;;;;;;;;;;;;;;;;5033690;28;20381;-75
2022/06/22 01:11:05;;;;;;;;;;;;;;;;;;5033609;28;19967;-76
2022/06/22 01:13:31;;;;;;;;;;;;;;;;;;5033949;28;19909;-75
2022/06/22 01:15:57;;;;;;;;;;;;;;;;;;5033873;28;19910;-77
2022/06/22 01:18:23;;;;;;;;;;;;;;;;;;5034210;28;19913;-75
2022/06/22 01:20:49;;;;;;;;;;;;;;;;;;5033592;28;19916;-76
2022/06/22 01:23:15;;;;;;;;;;;;;;;;;;5033552;28;19909;-75
2022/06/22 01:25:40;;;;;;;;;;;;;;;;;;5033505;28;19916;-75
2022/06/22 01:28:06;;;;;;;;;;;;;;;;;;5034056;28;20369;-75
2022/06/22 01:30:32;;;;;;;;;;;;;;;;;;5033443;28;19917;-77
2022/06/22 01:33:00;;;;;;;;;;;;;;;;;;5033742;28;19913;-77
2022/06/22 01:35:26;;;;;;;;;;;;;;;;;;5033411;28;19909;-76
2022/06/22 01:37:52;;;;;;;;;;;;;;;;;;5033351;28;19910;-77
2022/06/22 01:40:18;;;;;;;;;;;;;;;;;;5033392;28;19916;-77
2022/06/22 01:42:44;;;;;;;;;;;;;;;;;;5033045;28;19921;-77
2022/06/22 01:45:10;;;;;;;;;;;;;;;;;;5033328;28;19909;-77
2022/06/22 01:47:36;;;;;;;;;;;;;;;;;;5033568;28;19909;-77
2022/06/22 01:50:02;;;;;;;;;;;;;;;;;;5033540;28;19924;-77
2022/06/22 01:52:27;;;;;;;;;;;;;;;;;;5033290;28;19909;-77
2022/06/22 01:54:55;;;;;;;;;;;;;;;;;;5033834;28;20353;-77
2022/06/22 01:57:21;;;;;;;;;;;;;;;;;;5035887;28;19909;-76
2022/06/22 01:59:46;;;;;;;;;;;;;;;;;;5037236;28;20258;-76
2022/06/22 02:02:12;;;;;;;;;;;;;;;;;;5036952;28;19960;-76
2022/06/22 02:04:38;;;;;;;;;;;;;;;;;;5036918;28;19909;-76
2022/06/22 02:09:48;;;;;;;;;;;;;;;;;;5036531;28;19920;-75
2022/06/22 02:12:20;;;;;;;;;;;;;;;;;;5035497;28;19909;-76
2022/06/22 02:14:46;;;;;;;;;;;;;;;;;;5035431;28;20392;-76
2022/06/22 02:17:12;;;;;;;;;;;;;;;;;;5036703;28;20079;-77
2022/06/22 02:19:38;;;;;;;;;;;;;;;;;;5037245;28;19909;-76
2022/06/22 02:22:06;;;;;;;;;;;;;;;;;;5036659;28;19963;-76
2022/06/22 02:24:32;;;;;;;;;;;;;;;;;;5037197;28;19909;-76
2022/06/22 02:26:58;;;;;;;;;;;;;;;;;;5036917;28;19916;-76
2022/06/22 02:29:24;;;;;;;;;;;;;;;;;;5036647;28;20361;-77
2022/06/22 02:31:51;;;;;;;;;;;;;;;;;;5036407;28;19909;-76
2022/06/22 02:34:17;;;;;;;;;;;;;;;;;;5036390;28;19913;-76
2022/06/22 02:36:43;;;;;;;;;;;;;;;;;;5035084;28;20003;-77
2022/06/22 02:39:11;;;;;;;;;;;;;;;;;;5036241;28;19913;-76
2022/06/22 02:44:31;;;;;;;;;;;;;;;;;;5036027;28;20412;-76
2022/06/22 02:46:57;;;;;;;;;;;;;;;;;;5036168;28;19909;-75
2022/06/22 02:49:23;;;;;;;;;;;;;;;;;;5036025;28;19920;-75
2022/06/22 02:51:49;;;;;;;;;;;;;;;;;;5036073;28;20293;-75
2022/06/22 02:54:16;;;;;;;;;;;;;;;;;;5034728;28;19916;-75
2022/06/22 02:56:42;;;;;;;;;;;;;;;;;;5036362;28;19909;-75
2022/06/22 02:59:08;;;;;;;;;;;;;;;;;;5035923;28;20297;-76
2022/06/22 03:01:34;;;;;;;;;;;;;;;;;;5036148;28;19909;-77
2022/06/22 03:04:00;;;;;;;;;;;;;;;;;;5034547;28;19967;-76
2022/06/22 03:06:26;;;;;;;;;;;;;;;;;;5036345;28;20334;-75
2022/06/22 03:08:52;;;;;;;;;;;;;;;;;;5034795;28;19909;-75
2022/06/22 03:11:18;;;;;;;;;;;;;;;;;;5035546;28;20284;-77
2022/06/22 03:13:43;;;;;;;;;;;;;;;;;;5034393;28;19910;-76
2022/06/22 03:16:09;;;;;;;;;;;;;;;;;;5035603;28;19909;-76
2022/06/22 03:18:35;;;;;;;;;;;;;;;;;;5035846;28;19931;-76
2022/06/22 03:21:01;;;;;;;;;;;;;;;;;;5035751;28;19917;-76
2022/06/22 03:23:27;;;;;;;;;;;;;;;;;;5035480;28;19995;-77
2022/06/22 03:25:53;;;;;;;;;;;;;;;;;;5035683;28;19913;-76
2022/06/22 03:28:19;;;;;;;;;;;;;;;;;;5035655;28;19963;-76
2022/06/22 03:30:45;;;;;;;;;;;;;;;;;;5035213;28;19913;-75
2022/06/22 03:33:11;;;;;;;;;;;;;;;;;;5035082;28;19999;-76
2022/06/22 03:35:37;;;;;;;;;;;;;;;;;;5035499;28;19913;-75
2022/06/22 03:38:03;;;;;;;;;;;;;;;;;;5035341;28;19909;-76
2022/06/22 03:40:28;;;;;;;;;;;;;;;;;;5035410;28;19909;-75
2022/06/22 03:42:54;;;;;;;;;;;;;;;;;;5034717;28;19921;-76
2022/06/22 03:45:20;;;;;;;;;;;;;;;;;;5035633;28;20257;-76
2022/06/22 03:47:46;;;;;;;;;;;;;;;;;;5035288;28;19909;-77
2022/06/22 03:50:12;;;;;;;;;;;;;;;;;;5034842;28;19921;-76
2022/06/22 03:52:38;;;;;;;;;;;;;;;;;;5034884;28;20380;-76
2022/06/22 03:55:04;;;;;;;;;;;;;;;;;;5034855;28;19913;-76
2022/06/22 03:57:30;;;;;;;;;;;;;;;;;;5035099;28;19932;-76
2022/06/22 03:59:56;;;;;;;;;;;;;;;;;;5034788;28;20254;-75
2022/06/22 04:02:22;;;;;;;;;;;;;;;;;;5033407;28;20328;-76
2022/06/22 04:04:48;;;;;;;;;;;;;;;;;;5034674;28;19909;-76
2022/06/22 04:07:14;;;;;;;;;;;;;;;;;;5034882;28;19909;-76
2022/06/22 04:09:40;;;;;;;;;;;;;;;;;;5033296;28;19932;-76
2022/06/22 04:12:06;;;;;;;;;;;;;;;;;;5034569;28;20373;-76
2022/06/22 04:14:32;;;;;;;;;;;;;;;;;;5035084;28;20401;-75
2022/06/22 04:16:58;;;;;;;;;;;;;;;;;;5034463;28;19917;-75
2022/06/22 04:19:23;;;;;;;;;;;;;;;;;;5034640;28;20277;-75
2022/06/22 04:21:49;;;;;;;;;;;;;;;;;;5034651;28;19910;-75
2022/06/22 04:24:16;;;;;;;;;;;;;;;;;;5034618;28;19916;-75
2022/06/22 04:26:42;;;;;;;;;;;;;;;;;;5032891;28;19909;-75
2022/06/22 04:29:08;;;;;;;;;;;;;;;;;;5034547;28;19963;-77
2022/06/22 04:31:34;;;;;;;;;;;;;;;;;;5034111;28;19920;-74
2022/06/22 04:34:00;;;;;;;;;;;;;;;;;;5034733;28;19909;-75
2022/06/22 04:36:26;;;;;;;;;;;;;;;;;;5034438;28;19996;-74
2022/06/22 04:38:52;;;;;;;;;;;;;;;;;;5034042;28;19916;-75
2022/06/22 04:41:18;;;;;;;;;;;;;;;;;;5033845;28;19913;-75
2022/06/22 04:43:44;;;;;;;;;;;;;;;;;;5034279;28;19909;-75
2022/06/22 04:46:09;;;;;;;;;;;;;;;;;;5034251;28;19920;-76
2022/06/22 04:48:35;;;;;;;;;;;;;;;;;;5033959;28;20379;-76
2022/06/22 04:51:01;;;;;;;;;;;;;;;;;;5033851;28;19917;-76
2022/06/22 04:53:27;;;;;;;;;;;;;;;;;;5032700;28;20289;-76
2022/06/22 04:55:53;;;;;;;;;;;;;;;;;;5033879;28;19913;-76
2022/06/22 04:58:19;;;;;;;;;;;;;;;;;;5034368;28;20391;-76
2022/06/22 05:00:45;;;;;;;;;;;;;;;;;;5034061;28;19909;-75
2022/06/22 05:03:13;;;;;;;;;;;;;;;;;;5034308;28;20388;-76
2022/06/22 05:05:39;;;;;;;;;;;;;;;;;;5033997;28;20000;-76
2022/06/22 05:08:04;;;;;;;;;;;;;;;;;;5034263;28;19944;-76
2022/06/22 05:10:30;;;;;;;;;;;;;;;;;;5033888;28;19953;-76
2022/06/22 05:12:56;;;;;;;;;;;;;;;;;;5032395;28;19909;-76
2022/06/22 05:15:22;;;;;;;;;;;;;;;;;;5032407;28;19959;-74
2022/06/22 05:17:48;;;;;;;;;;;;;;;;;;5034135;28;19916;-77
2022/06/22 05:20:14;;;;;;;;;;;;;;;;;;5033572;28;19916;-76
2022/06/22 05:22:40;;;;;;;;;;;;;;;;;;5034093;28;20000;-76
2022/06/22 05:25:06;;;;;;;;;;;;;;;;;;5033544;28;20011;-78
2022/06/22 05:27:31;;;;;;;;;;;;;;;;;;5034035;28;20273;-76
2022/06/22 05:29:57;;;;;;;;;;;;;;;;;;5033684;28;19913;-77
2022/06/22 05:32:23;;;;;;;;;;;;;;;;;;5036043;28;19917;-77
2022/06/22 05:34:49;;;;;;;;;;;;;;;;;;5036188;28;19909;-77
2022/06/22 05:37:15;;;;;;;;;;;;;;;;;;5037459;28;19974;-75
2022/06/22 05:39:41;;;;;;;;;;;;;;;;;;5037351;28;19909;-77
2022/06/22 05:42:07;;;;;;;;;;;;;;;;;;5037271;28;19924;-76
2022/06/22 05:44:33;;;;;;;;;;;;;;;;;;5036051;28;19960;-77
2022/06/22 05:46:59;;;;;;;;;;;;;;;;;;5037242;28;19909;-77
2022/06/22 05:49:25;;;;;;;;;;;;;;;;;;5037761;28;20284;-76
2022/06/22 05:51:51;;;;;;;;;;;;;;;;;;5037377;28;19924;-75
2022/06/22 05:54:17;;;;;;;;;;;;;;;;;;5037113;28;19909;-76
2022/06/22 05:56:43;;;;;;;;;;;;;;;;;;5037641;28;19959;-77
2022/06/22 05:59:09;;;;;;;;;;;;;;;;;;5035770;28;19959;-76
2022/06/22 06:01:35;;;;;;;;;;;;;;;;;;5037290;28;19909;-78
2022/06/22 06:04:01;;;;;;;;;;;;;;;;;;5037251;28;19915;-76
2022/06/22 06:06:27;;;;;;;;;;;;;;;;;;5035697;28;19932;-76
2022/06/22 06:08:53;;;;;;;;;;;;;;;;;;5036907;28;19917;-76
2022/06/22 06:11:19;;;;;;;;;;;;;;;;;;5036833;28;19956;-77
2022/06/22 06:13:44;;;;;;;;;;;;;;;;;;5037373;28;20412;-76
2022/06/22 06:16:10;;;;;;;;;;;;;;;;;;5037027;28;19916;-76
2022/06/22 06:18:36;;;;;;;;;;;;;;;;;;5036718;28;20333;-75
2022/06/22 06:21:02;;;;;;;;;;;;;;;;;;5036916;28;19916;-77
2022/06/22 06:23:28;;;;;;;;;;;;;;;;;;5036620;28;19932;-77
2022/06/22 06:28:39;;;;;;;;;;;;;;;;;;5036271;28;19916;-75
2022/06/22 06:31:06;;;;;;;;;;;;;;;;;;5036386;28;19913;-76
2022/06/22 06:33:32;;;;;;;;;;;;;;;;;;5036423;28;19910;-75
2022/06/22 06:35:57;;;;;;;;;;;;;;;;;;5036668;28;19909;-75
2022/06/22 06:38:23;;;;;;;;;;;;;;;;;;5036459;28;19948;-77
2022/06/22 06:40:49;;;;;;;;;;;;;;;;;;5034804;28;19910;-77
2022/06/22 06:43:15;;;;;;;;;;;;;;;;;;5036541;28;19924;-76
2022/06/22 06:45:41;;;;;;;;;;;;;;;;;;5036185;28;19917;-78
2022/06/22 06:48:07;;;;;;;;;;;;;;;;;;5036725;28;20369;-76
2022/06/22 06:50:33;;;;;;;;;;;;;;;;;;5036040;28;20016;-76
2022/06/22 06:52:59;;;;;;;;;;;;;;;;;;5036622;28;20289;-77
2022/06/22 06:55:25;;;;;;;;;;;;;;;;;;5036002;28;19916;-77
2022/06/22 06:57:51;;;;;;;;;;;;;;;;;;5035982;28;20427;-77
2022/06/22 07:00:17;;;;;;;;;;;;;;;;;;5035946;28;19916;-77
2022/06/22 07:02:43;;;;;;;;;;;;;;;;;;5036161;28;19913;-77
2022/06/22 07:05:09;;;;;;;;;;;;;;;;;;5035826;28;19909;-76
2022/06/22 07:07:34;;;;;;;;;;;;;;;;;;5035775;28;20004;-75
2022/06/22 07:10:00;;;;;;;;;;;;;;;;;;5036243;28;20353;-77
2022/06/22 07:12:26;;;;;;;;;;;;;;;;;;5035981;28;19909;-75
2022/06/22 07:14:52;;;;;;;;;;;;;;;;;;5035927;28;20262;-76
2022/06/22 07:17:18;;;;;;;;;;;;;;;;;;5035581;28;19994;-77
2022/06/22 07:19:44;;;;;;;;;;;;;;;;;;5035541;28;20288;-77
2022/06/22 07:22:10;;;;;;;;;;;;;;;;;;5034237;28;19916;-77
2022/06/22 07:24:36;;;;;;;;;;;;;;;;;;5035771;28;19932;-76
2022/06/22 07:27:02;;;;;;;;;;;;;;;;;;5035690;28;20384;-77
2022/06/22 07:29:28;;;;;;;;;;;;;;;;;;5034120;28;19909;-76
2022/06/22 07:31:54;;;;;;;;;;;;;;;;;;5035306;28;19981;-77
2022/06/22 07:34:20;;;;;;;;;;;;;;;;;;5034054;28;19909;-78
2022/06/22 07:36:46;;;;;;;;;;;;;;;;;;5035217;28;19952;-76
2022/06/22 07:39:11;;;;;;;;;;;;;;;;;;5035031;28;19913;-75
2022/06/22 07:41:37;;;;;;;;;;;;;;;;;;5035131;28;19979;-76
2022/06/22 07:44:04;;;;;;;;;;;;;;;;;;5035613;28;19913;-75
2022/06/22 07:46:30;;;;;;;;;;;;;;;;;;5035010;28;19963;-76
2022/06/22 07:48:56;;;;;;;;;;;;;;;;;;5034713;28;20367;-75
2022/06/22 07:51:22;;;;;;;;;;;;;;;;;;5034799;28;19925;-77
2022/06/22 07:53:48;;;;;;;;;;;;;;;;;;5034894;28;19916;-76
2022/06/22 07:56:14;;;;;;;;;;;;;;;;;;5033556;28;19909;-75
2022/06/22 07:58:40;;;;;;;;;;;;;;;;;;5033578;28;19909;-76
2022/06/22 08:01:05;;;;;;;;;;;;;;;;;;5035055;28;19909;-75
2022/06/22 08:03:31;;;;;;;;;;;;;;;;;;5034739;28;20356;-75
2022/06/22 08:05:57;;;;;;;;;;;;;;;;;;5035011;28;19909;-78
2022/06/22 08:08:23;;;;;;;;;;;;;;;;;;5034677;28;19913;-77
2022/06/22 08:10:49;;;;;;;;;;;;;;;;;;5034798;28;19955;-77
2022/06/22 08:13:15;;;;;;;;;;;;;;;;;;5034566;28;20000;-75
2022/06/22 08:15:41;;;;;;;;;;;;;;;;;;5034505;28;19913;-76
2022/06/22 08:18:08;;;;;;;;;;;;;;;;;;5034756;28;19979;-77
2022/06/22 08:20:34;;;;;;;;;;;;;;;;;;5033180;28;19971;-77
2022/06/22 08:23:01;;;;;;;;;;;;;;;;;;5034399;28;19913;-75
2022/06/22 08:25:27;;;;;;;;;;;;;;;;;;5034617;28;19909;-76
2022/06/22 08:27:53;;;;;;;;;;;;;;;;;;5034278;28;20392;-75
2022/06/22 08:30:19;;;;;;;;;;;;;;;;;;5034157;28;19968;-75
2022/06/22 08:32:45;;;;;;;;;;;;;;;;;;5034138;28;19909;-76
2022/06/22 08:35:11;;;;;;;;;;;;;;;;;;5034107;28;19913;-75
2022/06/22 08:37:37;;;;;;;;;;;;;;;;;;5034617;28;19909;-75
2022/06/22 08:40:03;;;;;;;;;;;;;;;;;;5033971;28;19913;-77
2022/06/22 08:42:29;;;;;;;;;;;;;;;;;;5033977;28;19917;-75
2022/06/22 08:44:55;;;;;;;;;;;;;;;;;;5034276;28;19963;-77
2022/06/22 08:47:21;;;;;;;;;;;;;;;;;;5034274;28;19916;-75
2022/06/22 08:49:47;;;;;;;;;;;;;;;;;;5033889;28;19909;-74
2022/06/22 08:52:12;;;;;;;;;;;;;;;;;;5032642;28;19910;-77
2022/06/22 08:54:38;;;;;;;;;;;;;;;;;;5032612;28;19917;-76
2022/06/22 08:57:04;;;;;;;;;;;;;;;;;;5034120;28;19909;-74
2022/06/22 08:59:30;;;;;;;;;;;;;;;;;;5033836;28;19910;-76
2022/06/22 09:01:56;;;;;;;;;;;;;;;;;;5034091;28;19909;-76
2022/06/22 09:04:22;;;;;;;;;;;;;;;;;;5033759;28;20258;-76
2022/06/22 09:06:48;;;;;;;;;;;;;;;;;;5032414;28;19916;-76
2022/06/22 09:09:14;;;;;;;;;;;;;;;;;;5033677;28;19909;-79
2022/06/22 09:11:40;;;;;;;;;;;;;;;;;;5034141;28;20342;-76
2022/06/22 09:14:07;;;;;;;;;;;;;;;;;;5033921;28;19916;-76
2022/06/22 09:16:33;;;;;;;;;;;;;;;;;;5033629;28;19917;-76
2022/06/22 09:18:59;;;;;;;;;;;;;;;;;;5033864;28;20001;-76
2022/06/22 09:21:25;;;;;;;;;;;;;;;;;;5033594;28;20388;-77
2022/06/22 09:23:51;;;;;;;;;;;;;;;;;;5033851;28;19909;-75
2022/06/22 09:26:17;;;;;;;;;;;;;;;;;;5033511;28;19932;-76
2022/06/22 09:28:43;;;;;;;;;;;;;;;;;;5033778;28;19916;-76
2022/06/22 09:31:09;;;;;;;;;;;;;;;;;;5032116;28;19920;-74
2022/06/22 09:33:34;;;;;;;;;;;;;;;;;;5033637;28;19910;-74
2022/06/22 09:36:00;;;;;;;;;;;;;;;;;;5033324;28;20277;-75
2022/06/22 09:38:26;;;;;;;;;;;;;;;;;;5033666;28;19909;-76
2022/06/22 09:40:52;;;;;;;;;;;;;;;;;;5033121;28;19975;-76
2022/06/22 09:43:18;;;;;;;;;;;;;;;;;;5034037;28;19920;-76
2022/06/22 09:45:44;;;;;;;;;;;;;;;;;;5033675;28;19959;-76
2022/06/22 09:48:10;;;;;;;;;;;;;;;;;;5033620;28;19955;-76
2022/06/22 09:50:36;;;;;;;;;;;;;;;;;;5033248;28;19925;-77
2022/06/22 09:53:02;;;;;;;;;;;;;;;;;;5033324;28;19910;-77
2022/06/22 09:58:12;;;;;;;;;;;;;;;;;;5033072;28;19962;-75
2022/06/22 10:00:38;;;;;;;;;;;;;;;;;;5033252;28;19909;-77
2022/06/22 10:03:04;;;;;;;;;;;;;;;;;;5033528;28;20004;-75
2022/06/22 10:05:30;;;;;;;;;;;;;;;;;;5033207;28;19909;-75
2022/06/22 10:07:56;;;;;;;;;;;;;;;;;;5033205;28;19909;-75
2022/06/22 10:10:23;;;;;;;;;;;;;;;;;;5033670;28;20258;-76
2022/06/22 10:12:49;;;;;;;;;;;;;;;;;;5031894;28;19909;-75
2022/06/22 10:15:15;;;;;;;;;;;;;;;;;;5033346;28;19916;-75
2022/06/22 10:17:41;;;;;;;;;;;;;;;;;;5033038;28;19909;-76
2022/06/22 10:20:07;;;;;;;;;;;;;;;;;;5037214;28;20366;-75
2022/06/22 10:22:32;;;;;;;;;;;;;;;;;;5035440;28;19915;-78
2022/06/22 10:24:58;;;;;;;;;;;;;;;;;;5035270;28;19995;-75
2022/06/22 10:27:24;;;;;;;;;;;;;;;;;;5036850;28;19910;-75
2022/06/22 10:29:50;;;;;;;;;;;;;;;;;;5036426;28;19909;-77
2022/06/22 10:32:16;;;;;;;;;;;;;;;;;;5036500;28;19998;-76
2022/06/22 10:34:42;;;;;;;;;;;;;;;;;;5036716;28;19909;-74
2022/06/22 10:37:08;;;;;;;;;;;;;;;;;;5036652;28;20369;-75
2022/06/22 10:39:34;;;;;;;;;;;;;;;;;;5036843;28;19919;-78
2022/06/22 10:47:28;;;;;;;;;;;;;;;;;;5035947;28;19916;-74
2022/06/22 10:49:54;;;;;;;;;;;;;;;;;;5036353;28;19909;-75
2022/06/22 10:52:20;;;;;;;;;;;;;;;;;;5036415;28;19915;-76
2022/06/22 10:54:49;;;;;;;;;;;;;;;;;;5036618;28;19909;-76
2022/06/22 10:57:15;;;;;;;;;;;;;;;;;;5036032;28;19909;-74
2022/06/22 10:59:41;;;;;;;;;;;;;;;;;;5036245;28;19996;-75
2022/06/22 11:02:07;;;;;;;;;;;;;;;;;;5034685;28;19909;-78
2022/06/22 11:04:32;;;;;;;;;;;;;;;;;;5036180;28;19916;-74
2022/06/22 11:06:58;;;;;;;;;;;;;;;;;;5035849;28;19959;-80
2022/06/22 11:09:24;;;;;;;;;;;;;;;;;;5035798;28;20389;-76
2022/06/22 11:11:50;;;;;;;;;;;;;;;;;;5034417;28;19913;-75
2022/06/22 11:14:16;;;;;;;;;;;;;;;;;;5036232;28;20388;-77
2022/06/22 11:16:42;;;;;;;;;;;;;;;;;;5035945;28;19955;-76
2022/06/22 11:19:08;;;;;;;;;;;;;;;;;;5035599;28;20298;-77
2022/06/22 11:21:34;;;;;;;;;;;;;;;;;;5035864;28;19913;-76
2022/06/22 11:24:00;;;;;;;;;;;;;;;;;;5035546;28;19913;-74
2022/06/22 11:31:55;;;;;;;;;;;;;;;;;;5035343;28;19920;-76
2022/06/22 11:34:21;;;;;;;;;;;;;;;;;;5035331;28;20281;-75
2022/06/22 11:36:47;;;;;;;;;;;;;;;;;;5035875;28;20336;-76
2022/06/22 11:39:12;;;;;;;;;;;;;;;;;;5035184;28;19909;-78
2022/06/22 11:41:38;;;;;;;;;;;;;;;;;;5035192;28;19940;-76
2022/06/22 11:44:04;;;;;;;;;;;;;;;;;;5035428;28;19955;-76
2022/06/22 11:46:30;;;;;;;;;;;;;;;;;;5035087;28;19909;-77
2022/06/22 11:48:56;;;;;;;;;;;;;;;;;;5033756;28;19951;-75
2022/06/22 11:51:22;;;;;;;;;;;;;;;;;;5035235;28;19963;-75
2022/06/22 11:53:48;;;;;;;;;;;;;;;;;;5035246;28;19917;-76
2022/06/22 11:56:14;;;;;;;;;;;;;;;;;;5033631;28;19913;-75
2022/06/22 11:58:40;;;;;;;;;;;;;;;;;;5034898;28;19956;-76
2022/06/22 12:01:05;;;;;;;;;;;;;;;;;;5035094;28;19958;-77
2022/06/22 12:03:31;;;;;;;;;;;;;;;;;;5035058;28;19910;-74
2022/06/22 12:05:57;;;;;;;;;;;;;;;;;;5035297;28;19909;-76
2022/06/22 12:08:23;;;;;;;;;;;;;;;;;;5034666;28;20399;-77
2022/06/22 12:10:49;;;;;;;;;;;;;;;;;;5034563;28;19913;-77
2022/06/22 12:13:15;;;;;;;;;;;;;;;;;;5035158;28;19916;-76
2022/06/22 12:15:41;;;;;;;;;;;;;;;;;;5034808;28;19913;-74
2022/06/22 12:18:07;;;;;;;;;;;;;;;;;;5033203;28;19918;-75
2022/06/22 12:20:33;;;;;;;;;;;;;;;;;;5034375;28;20354;-74
2022/06/22 12:22:59;;;;;;;;;;;;;;;;;;5034468;28;19963;-76
2022/06/22 12:25:24;;;;;;;;;;;;;;;;;;5033032;28;19909;-73
2022/06/22 12:27:50;;;;;;;;;;;;;;;;;;5034854;28;19909;-76
2022/06/22 12:30:16;;;;;;;;;;;;;;;;;;5034497;28;19945;-77
2022/06/22 12:32:43;;;;;;;;;;;;;;;;;;5034240;28;19909;-77
2022/06/22 12:35:09;;;;;;;;;;;;;;;;;;5034191;28;19909;-78
2022/06/22 12:37:35;;;;;;;;;;;;;;;;;;5034565;28;19917;-75
2022/06/22 12:40:01;;;;;;;;;;;;;;;;;;5033833;28;19920;-78
2022/06/22 12:42:27;;;;;;;;;;;;;;;;;;5033765;28;19971;-76
2022/06/22 12:44:53;;;;;;;;;;;;;;;;;;5034327;28;19959;-77
2022/06/22 12:47:19;;;;;;;;;;;;;;;;;;5034048;28;19975;-77
2022/06/22 12:49:44;;;;;;;;;;;;;;;;;;5033887;28;20384;-77
2022/06/22 12:52:10;;;;;;;;;;;;;;;;;;5034454;28;20417;-74
2022/06/22 12:54:37;;;;;;;;;;;;;;;;;;5032614;28;19909;-78
2022/06/22 12:57:03;;;;;;;;;;;;;;;;;;5034210;28;19913;-76
2022/06/22 12:59:30;;;;;;;;;;;;;;;;;;5033859;28;19916;-77
2022/06/22 13:01:55;;;;;;;;;;;;;;;;;;5034368;28;19995;-77
2022/06/22 13:04:21;;;;;;;;;;;;;;;;;;5033811;28;20361;-76
2022/06/22 13:06:48;;;;;;;;;;;;;;;;;;5033794;28;19912;-75
2022/06/22 13:09:14;;;;;;;;;;;;;;;;;;5034313;28;20014;-76
2022/06/22 13:11:40;;;;;;;;;;;;;;;;;;5033573;28;20385;-75
2022/06/22 13:14:06;;;;;;;;;;;;;;;;;;5033602;28;19913;-75
2022/06/22 13:16:32;;;;;;;;;;;;;;;;;;5034195;28;19909;-76
2022/06/22 13:18:58;;;;;;;;;;;;;;;;;;5033627;28;19913;-75
2022/06/22 13:21:24;;;;;;;;;;;;;;;;;;5033606;28;20423;-77
2022/06/22 13:23:50;;;;;;;;;;;;;;;;;;5034127;28;19909;-75
2022/06/22 13:26:16;;;;;;;;;;;;;;;;;;5033532;28;19952;-76
2022/06/22 13:28:41;;;;;;;;;;;;;;;;;;5033605;28;20007;-75
2022/06/22 13:31:07;;;;;;;;;;;;;;;;;;5033787;28;19917;-78
2022/06/22 13:33:33;;;;;;;;;;;;;;;;;;5033783;28;20439;-78
2022/06/22 13:35:59;;;;;;;;;;;;;;;;;;5033781;28;19909;-73
2022/06/22 13:38:27;;;;;;;;;;;;;;;;;;5033443;28;19909;-77
2022/06/22 13:40:53;;;;;;;;;;;;;;;;;;5031983;28;20317;-74
2022/06/22 13:43:20;;;;;;;;;;;;;;;;;;5034016;28;20361;-76
2022/06/22 13:45:46;;;;;;;;;;;;;;;;;;5033422;28;19909;-75
2022/06/22 13:48:11;;;;;;;;;;;;;;;;;;5033343;28;19967;-74
2022/06/22 13:50:51;;;;;;;;;;;;;;;;;;5032016;28;19924;-74
2022/06/22 13:53:17;;;;;;;;;;;;;;;;;;5034137;28;20000;-77
2022/06/22 13:55:43;;;;;;;;;;;;;;;;;;5037736;28;20325;-73
2022/06/22 13:58:09;;;;;;;;;;;;;;;;;;5037167;28;19909;-78
2022/06/22 14:00:35;;;;;;;;;;;;;;;;;;5037132;28;19916;-78
2022/06/22 14:03:02;;;;;;;;;;;;;;;;;;5037048;28;19936;-76
2022/06/22 14:05:29;;;;;;;;;;;;;;;;;;5037266;28;19996;-76
2022/06/22 14:07:55;;;;;;;;;;;;;;;;;;5036988;28;19909;-75
2022/06/22 14:10:22;;;;;;;;;;;;;;;;;;5036823;28;19967;-75
2022/06/22 14:12:47;;;;;;;;;;;;;;;;;;5037164;28;19975;-76
2022/06/22 14:15:14;;;;;;;;;;;;;;;;;;5037257;28;20374;-77
2022/06/22 14:17:39;;;;;;;;;;;;;;;;;;5036908;28;19955;-74
2022/06/22 14:20:05;;;;;;;;;;;;;;;;;;5037324;28;20000;-78
2022/06/22 14:22:31;;;;;;;;;;;;;;;;;;5037074;28;20281;-76
2022/06/22 14:24:57;;;;;;;;;;;;;;;;;;5037094;28;19909;-75
2022/06/22 14:27:23;;;;;;;;;;;;;;;;;;5037520;28;20045;-75
2022/06/22 14:29:49;;;;;;;;;;;;;;;;;;5037157;28;19952;-77
2022/06/22 14:32:15;;;;;;;;;;;;;;;;;;5037274;28;19976;-75
2022/06/22 14:34:41;;;;;;;;;;;;;;;;;;5037245;28;19909;-75
2022/06/22 14:37:06;;;;;;;;;;;;;;;;;;5037290;28;20365;-75
2022/06/22 14:39:33;;;;;;;;;;;;;;;;;;5037401;28;19959;-75
2022/06/22 14:41:59;;;;;;;;;;;;;;;;;;5037081;28;19917;-77
2022/06/22 14:44:26;;;;;;;;;;;;;;;;;;5037605;28;19992;-78
2022/06/22 14:46:52;;;;;;;;;;;;;;;;;;5037372;28;19916;-75
2022/06/22 14:49:18;;;;;;;;;;;;;;;;;;5036023;28;19910;-77
2022/06/22 14:51:44;;;;;;;;;;;;;;;;;;5037359;28;19921;-76
2022/06/22 14:54:10;;;;;;;;;;;;;;;;;;5037871;28;19945;-76
2022/06/22 14:56:35;;;;;;;;;;;;;;;;;;5037677;28;20387;-74
2022/06/22 14:59:01;;;;;;;;;;;;;;;;;;5037804;28;19909;-77
2022/06/22 15:01:27;;;;;;;;;;;;;;;;;;5037615;28;19909;-77
2022/06/22 15:03:53;;;;;;;;;;;;;;;;;;5038114;28;19920;-76
2022/06/22 15:06:19;;;;;;;;;;;;;;;;;;5036443;28;20410;-75
2022/06/22 15:08:45;;;;;;;;;;;;;;;;;;5037788;28;19915;-74
2022/06/22 15:13:56;;;;;;;;;;;;;;;;;;5036752;28;20293;-74
2022/06/22 15:16:22;;;;;;;;;;;;;;;;;;5037003;28;19909;-78
2022/06/22 15:18:47;;;;;;;;;;;;;;;;;;5036320;28;19916;-75
2022/06/22 15:21:13;;;;;;;;;;;;;;;;;;5036602;28;20439;-75
2022/06/22 15:23:39;;;;;;;;;;;;;;;;;;5035862;28;19909;-76
2022/06/22 15:26:05;;;;;;;;;;;;;;;;;;5036273;28;20365;-77
2022/06/22 15:28:31;;;;;;;;;;;;;;;;;;5035987;28;19909;-77
2022/06/22 15:30:57;;;;;;;;;;;;;;;;;;5034392;28;20320;-78
2022/06/22 15:33:23;;;;;;;;;;;;;;;;;;5035886;28;19952;-77
2022/06/22 15:35:49;;;;;;;;;;;;;;;;;;5034247;28;19931;-75
2022/06/22 15:38:15;;;;;;;;;;;;;;;;;;5035850;28;20337;-77
2022/06/22 15:40:40;;;;;;;;;;;;;;;;;;5035524;28;19915;-76
2022/06/22 15:43:06;;;;;;;;;;;;;;;;;;5035112;28;19924;-79
2022/06/22 15:45:32;;;;;;;;;;;;;;;;;;5035159;28;19909;-75
2022/06/22 15:47:58;;;;;;;;;;;;;;;;;;5035733;28;20400;-77
2022/06/22 15:50:24;;;;;;;;;;;;;;;;;;5035241;28;19971;-75
2022/06/22 15:52:52;;;;;;;;;;;;;;;;;;5035205;28;20375;-76
2022/06/22 15:55:18;;;;;;;;;;;;;;;;;;5034997;28;19991;-77
2022/06/22 15:57:44;;;;;;;;;;;;;;;;;;5035189;28;19998;-77
2022/06/22 16:00:09;;;;;;;;;;;;;;;;;;5034881;28;20358;-77
2022/06/22 16:02:35;;;;;;;;;;;;;;;;;;5034886;28;19909;-75
2022/06/22 16:05:01;;;;;;;;;;;;;;;;;;5035332;28;20336;-76
2022/06/22 16:07:27;;;;;;;;;;;;;;;;;;5034725;28;19916;-76
2022/06/22 16:09:53;;;;;;;;;;;;;;;;;;5035201;28;20332;-74
2022/06/22 16:15:04;;;;;;;;;;;;;;;;;;5033817;28;19920;-79
2022/06/22 16:17:30;;;;;;;;;;;;;;;;;;5035110;28;19967;-75
2022/06/22 16:19:55;;;;;;;;;;;;;;;;;;5034503;28;20362;-75
2022/06/22 16:22:21;;;;;;;;;;;;;;;;;;5034491;28;20004;-77
2022/06/22 16:24:48;;;;;;;;;;;;;;;;;;5034372;28;19909;-77
2022/06/22 16:27:14;;;;;;;;;;;;;;;;;;5034369;28;19936;-78
2022/06/22 16:29:39;;;;;;;;;;;;;;;;;;5034864;28;20350;-74
2022/06/22 16:32:06;;;;;;;;;;;;;;;;;;5032856;28;20063;-76
2022/06/22 16:34:32;;;;;;;;;;;;;;;;;;5034224;28;19909;-79
2022/06/22 16:36:58;;;;;;;;;;;;;;;;;;5034199;28;20043;-76
2022/06/22 16:39:23;;;;;;;;;;;;;;;;;;5034195;28;20377;-78
2022/06/22 16:41:49;;;;;;;;;;;;;;;;;;5033869;28;19917;-77
2022/06/22 16:44:15;;;;;;;;;;;;;;;;;;5034607;28;19940;-77
2022/06/22 16:46:41;;;;;;;;;;;;;;;;;;5034301;28;19992;-76
2022/06/22 16:49:07;;;;;;;;;;;;;;;;;;5034556;28;20007;-78
2022/06/22 16:51:33;;;;;;;;;;;;;;;;;;5033867;28;19923;-74
2022/06/22 16:53:59;;;;;;;;;;;;;;;;;;5033909;28;19971;-78
2022/06/22 16:56:27;;;;;;;;;;;;;;;;;;5034142;28;19909;-78
2022/06/22 16:58:53;;;;;;;;;;;;;;;;;;5033833;28;19909;-75
2022/06/22 17:01:19;;;;;;;;;;;;;;;;;;5033867;28;19956;-79
2022/06/22 17:03:45;;;;;;;;;;;;;;;;;;5034099;28;20004;-77